sensor_id;sensor_type;location;lat;lon;timestamp;P1;durP1;ratioP1;P2;durP2;ratioP2
7108;SDS011;29079;41.930;25.558;2023-02-04T00:01:32;38.00;;;19.55;;
7108;SDS011;29079;41.930;25.558;2023-02-04T00:04:05;39.20;;;19.13;;
7108;SDS011;29079;41.930;25.558;2023-02-04T00:06:38;34.22;;;18.58;;
7108;SDS011;29079;41.930;25.558;2023-02-04T00:09:13;31.98;;;18.98;;
7108;SDS011;29079;41.930;25.558;2023-02-04T00:11:48;28.85;;;16.85;;
7108;SDS011;29079;41.930;25.558;2023-02-04T00:14:22;37.17;;;18.50;;
7108;SDS011;29079;41.930;25.558;2023-02-04T00:16:56;38.45;;;20.42;;
7108;SDS011;29079;41.930;25.558;2023-02-04T00:19:30;43.97;;;22.42;;
7108;SDS011;29079;41.930;25.558;2023-02-04T00:22:03;54.95;;;24.42;;
7108;SDS011;29079;41.930;25.558;2023-02-04T00:24:39;44.40;;;20.52;;
7108;SDS011;29079;41.930;25.558;2023-02-04T00:27:14;41.40;;;19.73;;
7108;SDS011;29079;41.930;25.558;2023-02-04T00:29:47;38.15;;;19.17;;
7108;SDS011;29079;41.930;25.558;2023-02-04T00:32:20;32.80;;;16.02;;
7108;SDS011;29079;41.930;25.558;2023-02-04T00:34:54;29.08;;;15.10;;
7108;SDS011;29079;41.930;25.558;2023-02-04T00:37:27;32.38;;;18.08;;
7108;SDS011;29079;41.930;25.558;2023-02-04T00:40:02;35.60;;;16.55;;
7108;SDS011;29079;41.930;25.558;2023-02-04T00:42:35;45.03;;;21.50;;
7108;SDS011;29079;41.930;25.558;2023-02-04T00:45:08;42.40;;;20.38;;
7108;SDS011;29079;41.930;25.558;2023-02-04T00:47:43;39.78;;;17.13;;
7108;SDS011;29079;41.930;25.558;2023-02-04T00:50:16;50.67;;;22.88;;
7108;SDS011;29079;41.930;25.558;2023-02-04T00:52:50;46.47;;;21.63;;
7108;SDS011;29079;41.930;25.558;2023-02-04T00:55:25;39.92;;;20.13;;
7108;SDS011;29079;41.930;25.558;2023-02-04T00:57:58;33.10;;;18.17;;
7108;SDS011;29079;41.930;25.558;2023-02-04T01:00:31;25.95;;;15.88;;
7108;SDS011;29079;41.930;25.558;2023-02-04T01:03:04;24.75;;;14.05;;
7108;SDS011;29079;41.930;25.558;2023-02-04T01:05:38;26.58;;;13.85;;
7108;SDS011;29079;41.930;25.558;2023-02-04T01:08:11;21.33;;;12.45;;
7108;SDS011;29079;41.930;25.558;2023-02-04T01:10:46;26.77;;;12.93;;
7108;SDS011;29079;41.930;25.558;2023-02-04T01:13:20;22.95;;;12.18;;
7108;SDS011;29079;41.930;25.558;2023-02-04T01:15:54;20.42;;;11.93;;
7108;SDS011;29079;41.930;25.558;2023-02-04T01:18:28;19.75;;;12.05;;
7108;SDS011;29079;41.930;25.558;2023-02-04T01:21:01;19.70;;;11.57;;
7108;SDS011;29079;41.930;25.558;2023-02-04T01:23:34;20.48;;;11.45;;
7108;SDS011;29079;41.930;25.558;2023-02-04T01:26:10;21.73;;;11.73;;
7108;SDS011;29079;41.930;25.558;2023-02-04T01:28:43;27.27;;;13.40;;
7108;SDS011;29079;41.930;25.558;2023-02-04T01:31:17;23.52;;;11.95;;
7108;SDS011;29079;41.930;25.558;2023-02-04T01:33:50;25.05;;;13.18;;
7108;SDS011;29079;41.930;25.558;2023-02-04T01:36:24;18.20;;;11.23;;
7108;SDS011;29079;41.930;25.558;2023-02-04T01:38:57;19.92;;;10.63;;
7108;SDS011;29079;41.930;25.558;2023-02-04T01:41:33;20.70;;;9.38;;
7108;SDS011;29079;41.930;25.558;2023-02-04T01:44:07;19.38;;;11.25;;
7108;SDS011;29079;41.930;25.558;2023-02-04T01:49:14;15.85;;;10.57;;
7108;SDS011;29079;41.930;25.558;2023-02-04T01:51:48;23.52;;;11.38;;
7108;SDS011;29079;41.930;25.558;2023-02-04T01:54:21;17.15;;;10.38;;
7108;SDS011;29079;41.930;25.558;2023-02-04T01:56:56;19.73;;;10.40;;
7108;SDS011;29079;41.930;25.558;2023-02-04T01:59:29;19.70;;;10.90;;
7108;SDS011;29079;41.930;25.558;2023-02-04T02:02:35;21.95;;;11.88;;
7108;SDS011;29079;41.930;25.558;2023-02-04T02:05:11;21.33;;;10.85;;
7108;SDS011;29079;41.930;25.558;2023-02-04T02:07:47;24.17;;;11.85;;
7108;SDS011;29079;41.930;25.558;2023-02-04T02:10:21;21.48;;;11.15;;
7108;SDS011;29079;41.930;25.558;2023-02-04T02:12:58;19.73;;;12.13;;
7108;SDS011;29079;41.930;25.558;2023-02-04T02:15:31;22.10;;;12.05;;
7108;SDS011;29079;41.930;25.558;2023-02-04T02:20:38;18.17;;;10.93;;
7108;SDS011;29079;41.930;25.558;2023-02-04T02:23:16;22.75;;;12.48;;
7108;SDS011;29079;41.930;25.558;2023-02-04T02:25:54;26.40;;;12.45;;
7108;SDS011;29079;41.930;25.558;2023-02-04T02:28:28;21.25;;;10.88;;
7108;SDS011;29079;41.930;25.558;2023-02-04T02:31:02;19.10;;;9.35;;
7108;SDS011;29079;41.930;25.558;2023-02-04T02:33:36;19.05;;;7.90;;
7108;SDS011;29079;41.930;25.558;2023-02-04T02:36:09;12.15;;;7.03;;
7108;SDS011;29079;41.930;25.558;2023-02-04T02:38:42;10.40;;;6.57;;
7108;SDS011;29079;41.930;25.558;2023-02-04T02:41:17;10.52;;;6.78;;
7108;SDS011;29079;41.930;25.558;2023-02-04T02:43:51;8.68;;;5.30;;
7108;SDS011;29079;41.930;25.558;2023-02-04T02:46:24;7.43;;;4.50;;
7108;SDS011;29079;41.930;25.558;2023-02-04T02:48:58;5.28;;;3.78;;
7108;SDS011;29079;41.930;25.558;2023-02-04T02:54:05;4.68;;;3.35;;
7108;SDS011;29079;41.930;25.558;2023-02-04T02:56:41;5.22;;;3.28;;
7108;SDS011;29079;41.930;25.558;2023-02-04T02:59:15;7.10;;;4.10;;
7108;SDS011;29079;41.930;25.558;2023-02-04T03:01:50;8.07;;;3.78;;
7108;SDS011;29079;41.930;25.558;2023-02-04T03:04:28;5.70;;;3.50;;
7108;SDS011;29079;41.930;25.558;2023-02-04T03:07:03;5.30;;;3.85;;
7108;SDS011;29079;41.930;25.558;2023-02-04T03:12:12;4.93;;;3.25;;
7108;SDS011;29079;41.930;25.558;2023-02-04T03:14:46;5.53;;;4.22;;
7108;SDS011;29079;41.930;25.558;2023-02-04T03:17:21;4.28;;;3.25;;
7108;SDS011;29079;41.930;25.558;2023-02-04T03:19:54;4.38;;;3.17;;
7108;SDS011;29079;41.930;25.558;2023-02-04T03:22:28;4.68;;;3.55;;
7108;SDS011;29079;41.930;25.558;2023-02-04T03:25:01;5.55;;;3.55;;
7108;SDS011;29079;41.930;25.558;2023-02-04T03:30:10;4.05;;;2.72;;
7108;SDS011;29079;41.930;25.558;2023-02-04T03:32:44;4.85;;;3.30;;
7108;SDS011;29079;41.930;25.558;2023-02-04T03:35:17;6.88;;;3.45;;
7108;SDS011;29079;41.930;25.558;2023-02-04T03:37:51;4.20;;;2.72;;
7108;SDS011;29079;41.930;25.558;2023-02-04T03:40:24;4.60;;;3.65;;
7108;SDS011;29079;41.930;25.558;2023-02-04T03:42:59;5.25;;;3.63;;
7108;SDS011;29079;41.930;25.558;2023-02-04T03:45:32;5.53;;;3.13;;
7108;SDS011;29079;41.930;25.558;2023-02-04T03:48:15;4.97;;;3.78;;
7108;SDS011;29079;41.930;25.558;2023-02-04T03:50:49;6.00;;;3.53;;
7108;SDS011;29079;41.930;25.558;2023-02-04T03:53:22;8.55;;;4.70;;
7108;SDS011;29079;41.930;25.558;2023-02-04T03:55:56;9.00;;;5.18;;
7108;SDS011;29079;41.930;25.558;2023-02-04T03:58:31;7.07;;;4.65;;
7108;SDS011;29079;41.930;25.558;2023-02-04T04:01:04;6.95;;;4.72;;
7108;SDS011;29079;41.930;25.558;2023-02-04T04:03:38;7.93;;;4.50;;
7108;SDS011;29079;41.930;25.558;2023-02-04T04:06:11;6.55;;;3.88;;
7108;SDS011;29079;41.930;25.558;2023-02-04T04:08:45;7.75;;;4.72;;
7108;SDS011;29079;41.930;25.558;2023-02-04T04:11:18;4.75;;;3.72;;
7108;SDS011;29079;41.930;25.558;2023-02-04T04:13:54;6.25;;;4.00;;
7108;SDS011;29079;41.930;25.558;2023-02-04T04:16:28;7.05;;;4.57;;
7108;SDS011;29079;41.930;25.558;2023-02-04T04:19:01;40.15;;;14.73;;
7108;SDS011;29079;41.930;25.558;2023-02-04T04:21:35;26.70;;;11.07;;
7108;SDS011;29079;41.930;25.558;2023-02-04T04:24:08;23.52;;;9.65;;
7108;SDS011;29079;41.930;25.558;2023-02-04T04:26:41;15.60;;;7.97;;
7108;SDS011;29079;41.930;25.558;2023-02-04T04:29:16;14.30;;;8.10;;
7108;SDS011;29079;41.930;25.558;2023-02-04T04:31:49;18.83;;;8.77;;
7108;SDS011;29079;41.930;25.558;2023-02-04T04:34:23;18.42;;;8.98;;
7108;SDS011;29079;41.930;25.558;2023-02-04T04:36:56;26.48;;;13.43;;
7108;SDS011;29079;41.930;25.558;2023-02-04T04:39:30;47.30;;;17.75;;
7108;SDS011;29079;41.930;25.558;2023-02-04T04:42:03;37.88;;;17.55;;
7108;SDS011;29079;41.930;25.558;2023-02-04T04:44:38;36.67;;;17.20;;
7108;SDS011;29079;41.930;25.558;2023-02-04T04:47:11;35.88;;;15.90;;
7108;SDS011;29079;41.930;25.558;2023-02-04T04:49:44;27.95;;;14.70;;
7108;SDS011;29079;41.930;25.558;2023-02-04T04:52:18;21.10;;;12.23;;
7108;SDS011;29079;41.930;25.558;2023-02-04T04:54:51;28.02;;;12.65;;
7108;SDS011;29079;41.930;25.558;2023-02-04T04:57:25;22.83;;;11.10;;
7108;SDS011;29079;41.930;25.558;2023-02-04T04:59:59;23.83;;;11.00;;
7108;SDS011;29079;41.930;25.558;2023-02-04T05:02:33;16.52;;;8.85;;
7108;SDS011;29079;41.930;25.558;2023-02-04T05:05:06;13.55;;;7.95;;
7108;SDS011;29079;41.930;25.558;2023-02-04T05:07:40;15.55;;;8.13;;
7108;SDS011;29079;41.930;25.558;2023-02-04T05:10:14;15.70;;;9.50;;
7108;SDS011;29079;41.930;25.558;2023-02-04T05:12:49;17.02;;;9.15;;
7108;SDS011;29079;41.930;25.558;2023-02-04T05:15:24;16.50;;;8.27;;
7108;SDS011;29079;41.930;25.558;2023-02-04T05:17:58;10.10;;;6.32;;
7108;SDS011;29079;41.930;25.558;2023-02-04T05:20:31;9.38;;;5.50;;
7108;SDS011;29079;41.930;25.558;2023-02-04T05:23:05;9.18;;;5.57;;
7108;SDS011;29079;41.930;25.558;2023-02-04T05:25:38;8.25;;;5.10;;
7108;SDS011;29079;41.930;25.558;2023-02-04T05:28:12;9.68;;;5.85;;
7108;SDS011;29079;41.930;25.558;2023-02-04T05:30:48;16.58;;;8.50;;
7108;SDS011;29079;41.930;25.558;2023-02-04T05:33:21;21.08;;;10.48;;
7108;SDS011;29079;41.930;25.558;2023-02-04T05:35:55;15.77;;;9.60;;
7108;SDS011;29079;41.930;25.558;2023-02-04T05:38:29;13.77;;;8.63;;
7108;SDS011;29079;41.930;25.558;2023-02-04T05:41:02;14.55;;;8.43;;
7108;SDS011;29079;41.930;25.558;2023-02-04T05:43:35;14.15;;;7.45;;
7108;SDS011;29079;41.930;25.558;2023-02-04T05:46:10;12.73;;;7.25;;
7108;SDS011;29079;41.930;25.558;2023-02-04T05:48:44;11.27;;;6.72;;
7108;SDS011;29079;41.930;25.558;2023-02-04T05:51:17;11.77;;;6.63;;
7108;SDS011;29079;41.930;25.558;2023-02-04T05:53:50;12.35;;;7.47;;
7108;SDS011;29079;41.930;25.558;2023-02-04T05:56:24;13.57;;;6.57;;
7108;SDS011;29079;41.930;25.558;2023-02-04T05:58:57;12.90;;;7.03;;
7108;SDS011;29079;41.930;25.558;2023-02-04T06:01:32;13.10;;;7.65;;
7108;SDS011;29079;41.930;25.558;2023-02-04T06:04:06;18.55;;;8.68;;
7108;SDS011;29079;41.930;25.558;2023-02-04T06:06:39;14.30;;;8.52;;
7108;SDS011;29079;41.930;25.558;2023-02-04T06:09:12;16.63;;;6.68;;
7108;SDS011;29079;41.930;25.558;2023-02-04T06:11:48;16.60;;;8.48;;
7108;SDS011;29079;41.930;25.558;2023-02-04T06:14:21;15.25;;;7.80;;
7108;SDS011;29079;41.930;25.558;2023-02-04T06:16:56;20.80;;;10.05;;
7108;SDS011;29079;41.930;25.558;2023-02-04T06:19:31;32.08;;;15.73;;
7108;SDS011;29079;41.930;25.558;2023-02-04T06:22:04;28.67;;;14.85;;
7108;SDS011;29079;41.930;25.558;2023-02-04T06:24:37;34.90;;;15.85;;
7108;SDS011;29079;41.930;25.558;2023-02-04T06:27:11;36.97;;;17.55;;
7108;SDS011;29079;41.930;25.558;2023-02-04T06:29:44;35.20;;;16.73;;
7108;SDS011;29079;41.930;25.558;2023-02-04T06:32:19;30.45;;;16.20;;
7108;SDS011;29079;41.930;25.558;2023-02-04T06:34:53;39.05;;;17.80;;
7108;SDS011;29079;41.930;25.558;2023-02-04T06:37:27;37.78;;;19.25;;
7108;SDS011;29079;41.930;25.558;2023-02-04T06:40:00;33.67;;;17.05;;
7108;SDS011;29079;41.930;25.558;2023-02-04T06:42:34;37.45;;;19.45;;
7108;SDS011;29079;41.930;25.558;2023-02-04T06:45:07;41.15;;;21.75;;
7108;SDS011;29079;41.930;25.558;2023-02-04T06:50:16;43.33;;;25.25;;
7108;SDS011;29079;41.930;25.558;2023-02-04T06:52:50;45.33;;;24.95;;
7108;SDS011;29079;41.930;25.558;2023-02-04T06:55:24;52.08;;;27.08;;
7108;SDS011;29079;41.930;25.558;2023-02-04T06:57:57;38.03;;;23.13;;
7108;SDS011;29079;41.930;25.558;2023-02-04T07:00:30;38.88;;;21.73;;
7108;SDS011;29079;41.930;25.558;2023-02-04T07:03:06;42.65;;;22.08;;
7108;SDS011;29079;41.930;25.558;2023-02-04T07:05:40;47.20;;;22.50;;
7108;SDS011;29079;41.930;25.558;2023-02-04T07:08:13;54.08;;;28.30;;
7108;SDS011;29079;41.930;25.558;2023-02-04T07:10:47;51.90;;;28.02;;
7108;SDS011;29079;41.930;25.558;2023-02-04T07:15:54;58.80;;;30.87;;
7108;SDS011;29079;41.930;25.558;2023-02-04T07:21:03;117.28;;;57.58;;
7108;SDS011;29079;41.930;25.558;2023-02-04T07:23:37;130.60;;;66.13;;
7108;SDS011;29079;41.930;25.558;2023-02-04T07:26:10;137.25;;;65.82;;
7108;SDS011;29079;41.930;25.558;2023-02-04T07:28:44;138.68;;;64.57;;
7108;SDS011;29079;41.930;25.558;2023-02-04T07:31:17;132.57;;;60.40;;
7108;SDS011;29079;41.930;25.558;2023-02-04T07:33:52;101.72;;;41.53;;
7108;SDS011;29079;41.930;25.558;2023-02-04T07:36:25;57.53;;;27.23;;
7108;SDS011;29079;41.930;25.558;2023-02-04T07:38:59;45.88;;;20.52;;
7108;SDS011;29079;41.930;25.558;2023-02-04T07:41:33;40.45;;;19.75;;
7108;SDS011;29079;41.930;25.558;2023-02-04T07:44:06;35.08;;;18.90;;
7108;SDS011;29079;41.930;25.558;2023-02-04T07:46:40;34.45;;;18.38;;
7108;SDS011;29079;41.930;25.558;2023-02-04T07:49:15;35.08;;;17.40;;
7108;SDS011;29079;41.930;25.558;2023-02-04T07:51:48;28.63;;;15.43;;
7108;SDS011;29079;41.930;25.558;2023-02-04T07:54:22;29.83;;;14.43;;
7108;SDS011;29079;41.930;25.558;2023-02-04T07:56:55;26.13;;;15.65;;
7108;SDS011;29079;41.930;25.558;2023-02-04T07:59:29;24.83;;;15.73;;
7108;SDS011;29079;41.930;25.558;2023-02-04T08:02:02;39.25;;;17.05;;
7108;SDS011;29079;41.930;25.558;2023-02-04T08:04:37;34.20;;;18.98;;
7108;SDS011;29079;41.930;25.558;2023-02-04T08:07:11;45.53;;;24.73;;
7108;SDS011;29079;41.930;25.558;2023-02-04T08:09:44;56.55;;;26.65;;
7108;SDS011;29079;41.930;25.558;2023-02-04T08:12:19;56.78;;;26.52;;
7108;SDS011;29079;41.930;25.558;2023-02-04T08:14:52;52.92;;;27.02;;
7108;SDS011;29079;41.930;25.558;2023-02-04T08:17:26;65.03;;;31.38;;
7108;SDS011;29079;41.930;25.558;2023-02-04T08:20:01;62.83;;;34.95;;
7108;SDS011;29079;41.930;25.558;2023-02-04T08:22:35;68.22;;;33.58;;
7108;SDS011;29079;41.930;25.558;2023-02-04T08:25:09;69.53;;;37.80;;
7108;SDS011;29079;41.930;25.558;2023-02-04T08:27:43;86.32;;;43.13;;
7108;SDS011;29079;41.930;25.558;2023-02-04T08:30:17;78.13;;;42.60;;
7108;SDS011;29079;41.930;25.558;2023-02-04T08:32:50;75.10;;;43.67;;
7108;SDS011;29079;41.930;25.558;2023-02-04T08:35:25;85.07;;;48.58;;
7108;SDS011;29079;41.930;25.558;2023-02-04T08:37:58;82.68;;;46.67;;
7108;SDS011;29079;41.930;25.558;2023-02-04T08:40:32;82.15;;;46.03;;
7108;SDS011;29079;41.930;25.558;2023-02-04T08:43:05;88.05;;;45.40;;
7108;SDS011;29079;41.930;25.558;2023-02-04T08:45:39;77.57;;;41.83;;
7108;SDS011;29079;41.930;25.558;2023-02-04T08:48:12;86.25;;;45.33;;
7108;SDS011;29079;41.930;25.558;2023-02-04T08:50:47;75.20;;;39.30;;
7108;SDS011;29079;41.930;25.558;2023-02-04T08:53:20;57.40;;;28.73;;
7108;SDS011;29079;41.930;25.558;2023-02-04T08:55:54;46.53;;;25.45;;
7108;SDS011;29079;41.930;25.558;2023-02-04T08:58:27;36.42;;;20.40;;
7108;SDS011;29079;41.930;25.558;2023-02-04T09:03:34;20.63;;;10.45;;
7108;SDS011;29079;41.930;25.558;2023-02-04T09:06:09;15.02;;;7.68;;
7108;SDS011;29079;41.930;25.558;2023-02-04T09:08:43;12.40;;;4.68;;
7108;SDS011;29079;41.930;25.558;2023-02-04T09:11:16;7.25;;;4.28;;
7108;SDS011;29079;41.930;25.558;2023-02-04T09:13:51;5.18;;;3.40;;
7108;SDS011;29079;41.930;25.558;2023-02-04T09:16:26;6.57;;;3.80;;
7108;SDS011;29079;41.930;25.558;2023-02-04T09:19:00;8.75;;;4.20;;
7108;SDS011;29079;41.930;25.558;2023-02-04T09:21:35;5.45;;;3.53;;
7108;SDS011;29079;41.930;25.558;2023-02-04T09:24:08;7.82;;;4.30;;
7108;SDS011;29079;41.930;25.558;2023-02-04T09:26:42;8.43;;;4.53;;
7108;SDS011;29079;41.930;25.558;2023-02-04T09:29:15;5.47;;;3.67;;
7108;SDS011;29079;41.930;25.558;2023-02-04T09:31:48;10.60;;;4.55;;
7108;SDS011;29079;41.930;25.558;2023-02-04T09:34:22;6.97;;;4.68;;
7108;SDS011;29079;41.930;25.558;2023-02-04T09:36:56;7.32;;;3.88;;
7108;SDS011;29079;41.930;25.558;2023-02-04T09:39:30;8.55;;;4.63;;
7108;SDS011;29079;41.930;25.558;2023-02-04T09:42:03;9.00;;;5.28;;
7108;SDS011;29079;41.930;25.558;2023-02-04T09:44:37;11.82;;;5.88;;
7108;SDS011;29079;41.930;25.558;2023-02-04T09:47:10;11.65;;;5.80;;
7108;SDS011;29079;41.930;25.558;2023-02-04T09:49:46;10.52;;;5.00;;
7108;SDS011;29079;41.930;25.558;2023-02-04T09:52:20;10.02;;;6.72;;
7108;SDS011;29079;41.930;25.558;2023-02-04T09:54:55;11.77;;;5.82;;
7108;SDS011;29079;41.930;25.558;2023-02-04T09:57:29;8.02;;;5.00;;
7108;SDS011;29079;41.930;25.558;2023-02-04T10:00:05;8.88;;;5.45;;
7108;SDS011;29079;41.930;25.558;2023-02-04T10:02:40;9.10;;;5.75;;
7108;SDS011;29079;41.930;25.558;2023-02-04T10:05:14;9.50;;;5.53;;
7108;SDS011;29079;41.930;25.558;2023-02-04T10:07:50;8.75;;;6.22;;
7108;SDS011;29079;41.930;25.558;2023-02-04T10:10:25;13.32;;;6.72;;
7108;SDS011;29079;41.930;25.558;2023-02-04T10:13:01;12.68;;;6.25;;
7108;SDS011;29079;41.930;25.558;2023-02-04T10:15:36;15.30;;;8.50;;
7108;SDS011;29079;41.930;25.558;2023-02-04T10:18:11;9.00;;;6.43;;
7108;SDS011;29079;41.930;25.558;2023-02-04T10:20:51;13.63;;;7.03;;
7108;SDS011;29079;41.930;25.558;2023-02-04T10:23:29;15.48;;;6.68;;
7108;SDS011;29079;41.930;25.558;2023-02-04T10:26:02;10.70;;;7.03;;
7108;SDS011;29079;41.930;25.558;2023-02-04T10:28:36;11.65;;;5.53;;
7108;SDS011;29079;41.930;25.558;2023-02-04T10:31:26;7.60;;;4.45;;
7108;SDS011;29079;41.930;25.558;2023-02-04T10:34:05;7.97;;;4.70;;
7108;SDS011;29079;41.930;25.558;2023-02-04T10:36:41;7.85;;;4.25;;
7108;SDS011;29079;41.930;25.558;2023-02-04T10:39:18;8.45;;;4.18;;
7108;SDS011;29079;41.930;25.558;2023-02-04T10:41:53;9.18;;;4.32;;
7108;SDS011;29079;41.930;25.558;2023-02-04T10:44:29;5.97;;;3.70;;
7108;SDS011;29079;41.930;25.558;2023-02-04T10:47:04;6.03;;;3.95;;
7108;SDS011;29079;41.930;25.558;2023-02-04T10:49:40;4.03;;;2.83;;
7108;SDS011;29079;41.930;25.558;2023-02-04T10:52:23;10.35;;;3.30;;
7108;SDS011;29079;41.930;25.558;2023-02-04T10:55:05;5.97;;;3.03;;
7108;SDS011;29079;41.930;25.558;2023-02-04T10:57:42;7.75;;;2.95;;
7108;SDS011;29079;41.930;25.558;2023-02-04T11:00:17;6.30;;;3.15;;
7108;SDS011;29079;41.930;25.558;2023-02-04T11:02:53;7.72;;;3.35;;
7108;SDS011;29079;41.930;25.558;2023-02-04T11:05:31;5.32;;;2.60;;
7108;SDS011;29079;41.930;25.558;2023-02-04T11:08:16;2.90;;;2.63;;
7108;SDS011;29079;41.930;25.558;2023-02-04T11:10:55;4.13;;;3.13;;
7108;SDS011;29079;41.930;25.558;2023-02-04T11:13:41;4.38;;;2.55;;
7108;SDS011;29079;41.930;25.558;2023-02-04T11:16:23;5.05;;;2.67;;
7108;SDS011;29079;41.930;25.558;2023-02-04T11:18:58;4.03;;;2.55;;
7108;SDS011;29079;41.930;25.558;2023-02-04T11:21:41;5.88;;;3.30;;
7108;SDS011;29079;41.930;25.558;2023-02-04T11:24:23;8.70;;;3.05;;
7108;SDS011;29079;41.930;25.558;2023-02-04T11:27:05;2.70;;;2.50;;
7108;SDS011;29079;41.930;25.558;2023-02-04T11:29:40;4.75;;;2.80;;
7108;SDS011;29079;41.930;25.558;2023-02-04T11:32:27;4.68;;;2.83;;
7108;SDS011;29079;41.930;25.558;2023-02-04T11:40:57;6.50;;;2.20;;
7108;SDS011;29079;41.930;25.558;2023-02-04T11:43:33;3.95;;;1.77;;
7108;SDS011;29079;41.930;25.558;2023-02-04T11:46:11;3.85;;;2.10;;
7108;SDS011;29079;41.930;25.558;2023-02-04T11:48:48;3.95;;;2.40;;
7108;SDS011;29079;41.930;25.558;2023-02-04T11:51:25;4.28;;;2.55;;
7108;SDS011;29079;41.930;25.558;2023-02-04T11:54:03;4.80;;;2.35;;
7108;SDS011;29079;41.930;25.558;2023-02-04T11:56:37;3.85;;;2.50;;
7108;SDS011;29079;41.930;25.558;2023-02-04T11:59:13;6.15;;;2.85;;
7108;SDS011;29079;41.930;25.558;2023-02-04T12:01:48;6.60;;;2.58;;
7108;SDS011;29079;41.930;25.558;2023-02-04T12:04:22;2.95;;;2.40;;
7108;SDS011;29079;41.930;25.558;2023-02-04T12:06:57;3.50;;;2.38;;
7108;SDS011;29079;41.930;25.558;2023-02-04T12:09:33;6.43;;;2.53;;
7108;SDS011;29079;41.930;25.558;2023-02-04T12:12:07;6.00;;;2.20;;
7108;SDS011;29079;41.930;25.558;2023-02-04T12:14:43;6.78;;;2.47;;
7108;SDS011;29079;41.930;25.558;2023-02-04T12:17:17;3.17;;;2.33;;
7108;SDS011;29079;41.930;25.558;2023-02-04T12:19:52;5.93;;;2.47;;
7108;SDS011;29079;41.930;25.558;2023-02-04T12:22:25;3.95;;;2.13;;
7108;SDS011;29079;41.930;25.558;2023-02-04T12:24:59;4.97;;;2.53;;
7108;SDS011;29079;41.930;25.558;2023-02-04T12:27:32;2.53;;;1.40;;
7108;SDS011;29079;41.930;25.558;2023-02-04T12:30:08;5.50;;;2.30;;
7108;SDS011;29079;41.930;25.558;2023-02-04T12:32:43;4.47;;;1.92;;
7108;SDS011;29079;41.930;25.558;2023-02-04T12:35:16;2.17;;;1.95;;
7108;SDS011;29079;41.930;25.558;2023-02-04T12:37:49;3.05;;;1.95;;
7108;SDS011;29079;41.930;25.558;2023-02-04T12:40:23;4.15;;;2.28;;
7108;SDS011;29079;41.930;25.558;2023-02-04T12:45:32;3.50;;;1.50;;
7108;SDS011;29079;41.930;25.558;2023-02-04T12:48:05;4.65;;;1.95;;
7108;SDS011;29079;41.930;25.558;2023-02-04T12:50:39;1.98;;;1.60;;
7108;SDS011;29079;41.930;25.558;2023-02-04T12:53:12;2.65;;;1.73;;
7108;SDS011;29079;41.930;25.558;2023-02-04T12:55:46;2.65;;;1.80;;
7108;SDS011;29079;41.930;25.558;2023-02-04T12:58:20;4.03;;;2.00;;
7108;SDS011;29079;41.930;25.558;2023-02-04T13:00:55;2.35;;;1.60;;
7108;SDS011;29079;41.930;25.558;2023-02-04T13:03:29;5.63;;;2.22;;
7108;SDS011;29079;41.930;25.558;2023-02-04T13:06:03;2.90;;;1.67;;
7108;SDS011;29079;41.930;25.558;2023-02-04T13:08:37;2.42;;;1.73;;
7108;SDS011;29079;41.930;25.558;2023-02-04T13:11:11;2.47;;;2.28;;
7108;SDS011;29079;41.930;25.558;2023-02-04T13:13:45;2.63;;;1.83;;
7108;SDS011;29079;41.930;25.558;2023-02-04T13:16:21;1.77;;;1.40;;
7108;SDS011;29079;41.930;25.558;2023-02-04T13:18:55;2.88;;;1.67;;
7108;SDS011;29079;41.930;25.558;2023-02-04T13:21:29;2.85;;;2.10;;
7108;SDS011;29079;41.930;25.558;2023-02-04T13:24:02;3.45;;;1.90;;
7108;SDS011;29079;41.930;25.558;2023-02-04T13:26:36;3.25;;;2.15;;
7108;SDS011;29079;41.930;25.558;2023-02-04T13:29:09;2.63;;;1.80;;
7108;SDS011;29079;41.930;25.558;2023-02-04T13:31:45;2.13;;;1.58;;
7108;SDS011;29079;41.930;25.558;2023-02-04T13:34:18;3.08;;;2.22;;
7108;SDS011;29079;41.930;25.558;2023-02-04T13:36:52;5.15;;;2.47;;
7108;SDS011;29079;41.930;25.558;2023-02-04T13:39:25;4.10;;;2.33;;
7108;SDS011;29079;41.930;25.558;2023-02-04T13:41:59;3.47;;;2.28;;
7108;SDS011;29079;41.930;25.558;2023-02-04T13:44:35;3.33;;;2.50;;
7108;SDS011;29079;41.930;25.558;2023-02-04T13:47:10;2.38;;;1.65;;
7108;SDS011;29079;41.930;25.558;2023-02-04T13:49:44;2.55;;;2.22;;
7108;SDS011;29079;41.930;25.558;2023-02-04T13:52:17;1.90;;;1.67;;
7108;SDS011;29079;41.930;25.558;2023-02-04T13:54:52;4.00;;;2.05;;
7108;SDS011;29079;41.930;25.558;2023-02-04T13:57:27;7.25;;;2.53;;
7108;SDS011;29079;41.930;25.558;2023-02-04T14:00:02;4.22;;;2.28;;
7108;SDS011;29079;41.930;25.558;2023-02-04T14:02:37;4.32;;;2.00;;
7108;SDS011;29079;41.930;25.558;2023-02-04T14:05:11;3.67;;;2.15;;
7108;SDS011;29079;41.930;25.558;2023-02-04T14:07:44;1.70;;;1.50;;
7108;SDS011;29079;41.930;25.558;2023-02-04T14:10:17;2.05;;;1.65;;
7108;SDS011;29079;41.930;25.558;2023-02-04T14:12:54;4.10;;;1.30;;
7108;SDS011;29079;41.930;25.558;2023-02-04T14:15:29;2.50;;;1.20;;
7108;SDS011;29079;41.930;25.558;2023-02-04T14:18:04;1.75;;;1.65;;
7108;SDS011;29079;41.930;25.558;2023-02-04T14:20:38;1.40;;;1.30;;
7108;SDS011;29079;41.930;25.558;2023-02-04T14:23:11;2.03;;;1.60;;
7108;SDS011;29079;41.930;25.558;2023-02-04T14:25:44;2.58;;;1.80;;
7108;SDS011;29079;41.930;25.558;2023-02-04T14:28:17;5.43;;;1.88;;
7108;SDS011;29079;41.930;25.558;2023-02-04T14:30:51;4.07;;;1.92;;
7108;SDS011;29079;41.930;25.558;2023-02-04T14:33:27;3.40;;;2.25;;
7108;SDS011;29079;41.930;25.558;2023-02-04T14:36:00;5.90;;;2.28;;
7108;SDS011;29079;41.930;25.558;2023-02-04T14:38:33;3.53;;;1.88;;
7108;SDS011;29079;41.930;25.558;2023-02-04T14:41:09;2.90;;;1.83;;
7108;SDS011;29079;41.930;25.558;2023-02-04T14:43:47;3.78;;;2.10;;
7108;SDS011;29079;41.930;25.558;2023-02-04T14:46:22;8.07;;;2.08;;
7108;SDS011;29079;41.930;25.558;2023-02-04T14:48:57;6.60;;;1.67;;
7108;SDS011;29079;41.930;25.558;2023-02-04T14:51:30;8.27;;;2.25;;
7108;SDS011;29079;41.930;25.558;2023-02-04T14:54:03;6.50;;;2.25;;
7108;SDS011;29079;41.930;25.558;2023-02-04T14:59:10;4.72;;;2.00;;
7108;SDS011;29079;41.930;25.558;2023-02-04T15:01:44;4.60;;;2.65;;
7108;SDS011;29079;41.930;25.558;2023-02-04T15:04:19;3.53;;;2.45;;
7108;SDS011;29079;41.930;25.558;2023-02-04T15:06:52;9.48;;;3.38;;
7108;SDS011;29079;41.930;25.558;2023-02-04T15:09:28;3.47;;;2.65;;
7108;SDS011;29079;41.930;25.558;2023-02-04T15:12:02;4.75;;;3.08;;
7108;SDS011;29079;41.930;25.558;2023-02-04T15:14:37;5.90;;;3.67;;
7108;SDS011;29079;41.930;25.558;2023-02-04T15:19:46;4.07;;;2.83;;
7108;SDS011;29079;41.930;25.558;2023-02-04T15:22:19;6.22;;;2.70;;
7108;SDS011;29079;41.930;25.558;2023-02-04T15:24:52;3.13;;;2.53;;
7108;SDS011;29079;41.930;25.558;2023-02-04T15:27:26;3.78;;;2.47;;
7108;SDS011;29079;41.930;25.558;2023-02-04T15:30:01;6.68;;;3.38;;
7108;SDS011;29079;41.930;25.558;2023-02-04T15:32:34;5.75;;;3.15;;
7108;SDS011;29079;41.930;25.558;2023-02-04T15:35:09;3.35;;;2.42;;
7108;SDS011;29079;41.930;25.558;2023-02-04T15:37:43;7.97;;;3.22;;
7108;SDS011;29079;41.930;25.558;2023-02-04T15:40:16;3.42;;;2.80;;
7108;SDS011;29079;41.930;25.558;2023-02-04T15:45:23;9.80;;;5.43;;
7108;SDS011;29079;41.930;25.558;2023-02-04T15:47:57;7.93;;;4.88;;
7108;SDS011;29079;41.930;25.558;2023-02-04T15:50:32;9.48;;;5.45;;
7108;SDS011;29079;41.930;25.558;2023-02-04T15:53:06;7.38;;;4.07;;
7108;SDS011;29079;41.930;25.558;2023-02-04T15:55:40;8.05;;;4.10;;
7108;SDS011;29079;41.930;25.558;2023-02-04T15:58:13;6.45;;;4.00;;